NOAA Web Site Link Tides and Currents Home Page Transparent placeholder image

PORTS® Data Listing: 8539094 Burlington, Delaware River, NJ

CO-OPS RAW PORTS DATA

************************      PRELIMINARY DATA      ************************** 

     THIS RAW DATA HAS NOT BEEN SUBJECT TO THE NATIONAL OCEAN SERVICE'S        
     QUALITY CONTROL OR QUALITY ASSURANCE PROCEDURES AND DOES NOT MEET         
     THE CRITERIA AND STANDARDS OF OFFICIAL NATIONAL OCEAN SERVICE             
     DATA.  IT IS RELEASED FOR LIMITED PUBLIC USE AS PRELIMINARY DATA TO       
     BE USED ONLY WITH APPROPRIATE CAUTION.                                    

************************      PRELIMINARY DATA      ************************** 


       CD   -   Calendar date
       T    -   Time
       TZ   -   Timezone
       PW   -   Predicted water level (feet above MLLW)
       OW   -   Observed water level (feet above MLLW)
       WS   -   Wind speed (knots)
       WD   -   Wind direction (degrees true)
       WG   -   Wind gust (knots)
       AT   -   Air temperature (degrees farenheit)
       WT   -   Water temperature (degrees farenheit)
       AP   -   Air pressure (millibars)
       SA   -   Salinty (PSU - Practical Salinity Units)
       SG   -   Specific gravity
       RH   -   Relative humidity
       AG   -   Air gap (feet)
       VI   -   Visibility (nautical miles)

       ** NOTE **
       A variable that has its data fields filled with "9"s, indicates that
       data was not collected for that sample period.
       **********


STATION NAME: Burlington, Delaware River (8539094)
****************************************************************************************************
    CD       T    TZ    PW     OW    WS   WD   WG    AT    WT    AP    SA    SG     RH    AG   VI
****************************************************************************************************
2018/10/21 22:12 EDT    4.26   2.86    4  286    6  42.6  52.9 1022.2 -9.9 -9.999 -99.9 -99.99 -9.99
2018/10/21 22:18 EDT    4.45   3.10    4  286    5  42.8  53.1 1022.3 -9.9 -9.999 -99.9 -99.99 -9.99
2018/10/21 22:24 EDT    4.64   3.35    4  291    7  42.4  53.1 1022.4 -9.9 -9.999 -99.9 -99.99 -9.99
2018/10/21 22:30 EDT    4.83   3.61    3  290    5  42.3  53.1 1022.4 -9.9 -9.999 -99.9 -99.99 -9.99
2018/10/21 22:36 EDT    5.01   3.87    3  288    5  42.1  53.1 1022.3 -9.9 -9.999 -99.9 -99.99 -9.99
2018/10/21 22:42 EDT    5.19   4.13    3  283    5  42.1  53.1 1022.2 -9.9 -9.999 -99.9 -99.99 -9.99
2018/10/21 22:48 EDT    5.37   4.36    4  280    5  41.9  53.1 1022.4 -9.9 -9.999 -99.9 -99.99 -9.99
2018/10/21 22:54 EDT    5.54   4.58    3  281    5  42.1  53.1 1022.5 -9.9 -9.999 -99.9 -99.99 -9.99
2018/10/21 23:00 EDT    5.71   4.79    4  290    6  42.1  53.1 1022.6 -9.9 -9.999 -99.9 -99.99 -9.99
2018/10/21 23:06 EDT    5.87   4.98    4  294    7  41.7  53.1 1022.6 -9.9 -9.999 -99.9 -99.99 -9.99
2018/10/21 23:12 EDT    6.04   5.17    5  286    7  41.5  53.1 1022.6 -9.9 -9.999 -99.9 -99.99 -9.99
2018/10/21 23:18 EDT    6.19   5.34    5  287    7  41.4  53.1 1022.6 -9.9 -9.999 -99.9 -99.99 -9.99
2018/10/21 23:24 EDT    6.34   5.50    4  291    6  41.4  53.1 1022.7 -9.9 -9.999 -99.9 -99.99 -9.99
2018/10/21 23:30 EDT    6.49   5.65    3  294    5  41.0  53.1 1022.6 -9.9 -9.999 -99.9 -99.99 -9.99
2018/10/21 23:36 EDT    6.64   5.81    4  295    5  41.0  53.1 1022.6 -9.9 -9.999 -99.9 -99.99 -9.99
2018/10/21 23:42 EDT    6.77   5.96    4  286    5  40.8  53.1 1022.6 -9.9 -9.999 -99.9 -99.99 -9.99
2018/10/21 23:48 EDT    6.90   6.11    4  279    5  40.6  53.1 1022.7 -9.9 -9.999 -99.9 -99.99 -9.99
2018/10/21 23:54 EDT    7.03   6.25    4  276    6  40.8  53.1 1022.8 -9.9 -9.999 -99.9 -99.99 -9.99
2018/10/22 00:00 EDT    7.15   6.38    4  282    5  40.6  52.9 1022.9 -9.9 -9.999 -99.9 -99.99 -9.99
2018/10/22 00:06 EDT    7.26   6.50    3  298    5  40.6  52.9 1022.8 -9.9 -9.999 -99.9 -99.99 -9.99
2018/10/22 00:12 EDT    7.36   6.63    3  297    5  40.3  52.9 1022.9 -9.9 -9.999 -99.9 -99.99 -9.99
2018/10/22 00:18 EDT    7.45   6.74    2  280    4  39.9  52.9 1022.8 -9.9 -9.999 -99.9 -99.99 -9.99
2018/10/22 00:24 EDT    7.54   6.85    2  282    3  39.9  53.1 1022.7 -9.9 -9.999 -99.9 -99.99 -9.99
2018/10/22 00:30 EDT    7.61   6.96    2  298    3  40.1  52.9 1022.7 -9.9 -9.999 -99.9 -99.99 -9.99
2018/10/22 00:36 EDT    7.68   7.05    3  282    4  40.1  53.1 1022.8 -9.9 -9.999 -99.9 -99.99 -9.99
2018/10/22 00:42 EDT    7.73   7.14    3  282    4  40.3  52.9 1022.9 -9.9 -9.999 -99.9 -99.99 -9.99
2018/10/22 00:48 EDT    7.77   7.23    2  303    4  40.3  53.1 1022.9 -9.9 -9.999 -99.9 -99.99 -9.99
2018/10/22 00:54 EDT    7.80   7.31    2  292    3  39.9  53.1 1023.0 -9.9 -9.999 -99.9 -99.99 -9.99
2018/10/22 01:00 EDT    7.82   7.37    3  284    4  40.5  52.9 1023.0 -9.9 -9.999 -99.9 -99.99 -9.99
2018/10/22 01:06 EDT    7.83   7.43    4  275    5  41.0  52.9 1023.0 -9.9 -9.999 -99.9 -99.99 -9.99
2018/10/22 01:12 EDT    7.82   7.47    5  271    6  41.0  52.9 1023.0 -9.9 -9.999 -99.9 -99.99 -9.99
2018/10/22 01:18 EDT    7.81   7.50    3  285    5  41.0  52.9 1023.1 -9.9 -9.999 -99.9 -99.99 -9.99
2018/10/22 01:24 EDT    7.78   7.52    3  280    5  40.8  52.9 1023.1 -9.9 -9.999 -99.9 -99.99 -9.99
2018/10/22 01:30 EDT    7.74   7.53    3  237    5  40.5  52.9 1023.1 -9.9 -9.999 -99.9 -99.99 -9.99
2018/10/22 01:36 EDT    7.70   7.52    4  235    5  39.4  52.9 1023.1 -9.9 -9.999 -99.9 -99.99 -9.99
2018/10/22 01:42 EDT    7.64   7.49    4  236    4  39.2  52.9 1023.2 -9.9 -9.999 -99.9 -99.99 -9.99
2018/10/22 01:48 EDT    7.57   7.44    3  246    4  40.1  52.9 1023.2 -9.9 -9.999 -99.9 -99.99 -9.99
2018/10/22 01:54 EDT    7.50   7.38    4  230    5  39.7  53.1 1023.3 -9.9 -9.999 -99.9 -99.99 -9.99
2018/10/22 02:00 EDT    7.41   7.31    4  217    5  38.8  53.1 1023.3 -9.9 -9.999 -99.9 -99.99 -9.99
2018/10/22 02:06 EDT    7.32   7.23    5  221    6  38.5  53.1 1023.4 -9.9 -9.999 -99.9 -99.99 -9.99
2018/10/22 02:12 EDT    7.23   7.13    5  230    6  38.3  52.9 1023.5 -9.9 -9.999 -99.9 -99.99 -9.99
2018/10/22 02:18 EDT    7.12   7.02    6  229    7  39.0  52.9 1023.6 -9.9 -9.999 -99.9 -99.99 -9.99
2018/10/22 02:24 EDT    7.01   6.92    6  241    7  39.4  52.9 1023.6 -9.9 -9.999 -99.9 -99.99 -9.99
2018/10/22 02:30 EDT    6.90   6.81    5  267    7  40.3  52.9 1023.6 -9.9 -9.999 -99.9 -99.99 -9.99
2018/10/22 02:36 EDT    6.78   6.70    7  269   10  41.4  52.9 1023.6 -9.9 -9.999 -99.9 -99.99 -9.99
2018/10/22 02:42 EDT    6.66   6.58    7  276    9  41.2  52.9 1023.6 -9.9 -9.999 -99.9 -99.99 -9.99
2018/10/22 02:48 EDT    6.54   6.46    7  279   10  41.5  52.9 1023.7 -9.9 -9.999 -99.9 -99.99 -9.99
2018/10/22 02:54 EDT    6.41   6.33    7  281    9  41.4  52.9 1023.7 -9.9 -9.999 -99.9 -99.99 -9.99
2018/10/22 03:00 EDT    6.28   6.21    6  283    9  41.0  52.9 1023.7 -9.9 -9.999 -99.9 -99.99 -9.99
2018/10/22 03:06 EDT    6.15   6.08    5  283    7  41.0  52.9 1023.7 -9.9 -9.999 -99.9 -99.99 -9.99
2018/10/22 03:12 EDT    6.01   5.94    6  281    8  41.4  52.9 1023.7 -9.9 -9.999 -99.9 -99.99 -9.99
2018/10/22 03:18 EDT    5.87   5.80    7  277    9  41.2  52.9 1023.7 -9.9 -9.999 -99.9 -99.99 -9.99
2018/10/22 03:24 EDT    5.73   5.65    6  285    9  40.8  52.9 1023.7 -9.9 -9.999 -99.9 -99.99 -9.99
2018/10/22 03:30 EDT    5.59   5.51    6  285    8  40.8  52.9 1023.7 -9.9 -9.999 -99.9 -99.99 -9.99
2018/10/22 03:36 EDT    5.45   5.37    5  283    8  40.6  52.9 1023.8 -9.9 -9.999 -99.9 -99.99 -9.99
2018/10/22 03:42 EDT    5.30   5.22    6  286    9  40.6  52.9 1023.8 -9.9 -9.999 -99.9 -99.99 -9.99
2018/10/22 03:48 EDT    5.16   5.08    7  291    9  40.8  52.9 1023.8 -9.9 -9.999 -99.9 -99.99 -9.99
2018/10/22 03:54 EDT    5.01   4.93    7  286    9  40.5  52.9 1023.8 -9.9 -9.999 -99.9 -99.99 -9.99
2018/10/22 04:00 EDT    4.86   4.79    5  286    8  40.6  52.9 1023.8 -9.9 -9.999 -99.9 -99.99 -9.99
2018/10/22 04:06 EDT    4.71   4.65    6  287    8  40.8  52.9 1023.8 -9.9 -9.999 -99.9 -99.99 -9.99
2018/10/22 04:12 EDT    4.56   4.51    6  283    8  40.8  52.9 1023.8 -9.9 -9.999 -99.9 -99.99 -9.99
2018/10/22 04:18 EDT    4.42   4.37    6  274    8  41.2  52.9 1023.8 -9.9 -9.999 -99.9 -99.99 -9.99
2018/10/22 04:24 EDT    4.27   4.23    5  286    9  41.5  52.9 1023.8 -9.9 -9.999 -99.9 -99.99 -9.99
2018/10/22 04:30 EDT    4.12   4.09    5  287    8  40.8  52.9 1023.8 -9.9 -9.999 -99.9 -99.99 -9.99
2018/10/22 04:36 EDT    3.98   3.96    5  281    8  41.0  52.9 1023.8 -9.9 -9.999 -99.9 -99.99 -9.99
2018/10/22 04:42 EDT    3.83   3.82    5  281    7  40.8  52.9 1023.8 -9.9 -9.999 -99.9 -99.99 -9.99
2018/10/22 04:48 EDT    3.69   3.68    6  280    8  41.4  52.9 1023.8 -9.9 -9.999 -99.9 -99.99 -9.99
2018/10/22 04:54 EDT    3.55   3.55    6  287    7  41.2  52.9 1023.7 -9.9 -9.999 -99.9 -99.99 -9.99
2018/10/22 05:00 EDT    3.41   3.42    5  282    7  41.0  52.9 1023.8 -9.9 -9.999 -99.9 -99.99 -9.99
2018/10/22 05:06 EDT    3.28   3.29    5  285    7  40.6  52.9 1023.8 -9.9 -9.999 -99.9 -99.99 -9.99
2018/10/22 05:12 EDT    3.15   3.16    6  281    7  41.0  52.7 1023.8 -9.9 -9.999 -99.9 -99.99 -9.99
2018/10/22 05:18 EDT    3.02   3.04    6  281    7  41.0  52.7 1023.9 -9.9 -9.999 -99.9 -99.99 -9.99
2018/10/22 05:24 EDT    2.89   2.90    6  285    8  41.2  52.7 1023.9 -9.9 -9.999 -99.9 -99.99 -9.99
2018/10/22 05:30 EDT    2.77   2.78    5  283    7  40.8  52.7 1023.9 -9.9 -9.999 -99.9 -99.99 -9.99
2018/10/22 05:36 EDT    2.65   2.66    5  279    6  40.6  52.7 1024.0 -9.9 -9.999 -99.9 -99.99 -9.99
2018/10/22 05:42 EDT    2.53   2.54    4  289    6  40.5  52.7 1024.1 -9.9 -9.999 -99.9 -99.99 -9.99
2018/10/22 05:48 EDT    2.42   2.42    5  290    7  40.6  52.7 1024.1 -9.9 -9.999 -99.9 -99.99 -9.99
2018/10/22 05:54 EDT    2.31   2.30    5  287    7  40.8  52.7 1024.2 -9.9 -9.999 -99.9 -99.99 -9.99
2018/10/22 06:00 EDT    2.20   2.18    4  288    6  40.8  52.7 1024.1 -9.9 -9.999 -99.9 -99.99 -9.99
2018/10/22 06:06 EDT    2.09   2.08    4  292    6  41.0  52.7 1024.2 -9.9 -9.999 -99.9 -99.99 -9.99
2018/10/22 06:12 EDT    1.98   1.96    4  295    7  40.8  52.7 1024.3 -9.9 -9.999 -99.9 -99.99 -9.99
2018/10/22 06:18 EDT    1.88   1.85    4  291    6  40.8  52.7 1024.3 -9.9 -9.999 -99.9 -99.99 -9.99
2018/10/22 06:24 EDT    1.77   1.74    5  283    6  40.8  52.7 1024.3 -9.9 -9.999 -99.9 -99.99 -9.99
2018/10/22 06:30 EDT    1.67   1.63    5  282    6  41.0  52.7 1024.3 -9.9 -9.999 -99.9 -99.99 -9.99
2018/10/22 06:36 EDT    1.57   1.52    5  282    7  41.4  52.7 1024.4 -9.9 -9.999 -99.9 -99.99 -9.99
2018/10/22 06:42 EDT    1.47   1.41    6  279    7  41.7  52.7 1024.3 -9.9 -9.999 -99.9 -99.99 -9.99
2018/10/22 06:48 EDT    1.37   1.31    6  274    8  42.3  52.7 1024.4 -9.9 -9.999 -99.9 -99.99 -9.99
2018/10/22 06:54 EDT    1.28   1.19    6  250    9  42.3  52.5 1024.4 -9.9 -9.999 -99.9 -99.99 -9.99
2018/10/22 07:00 EDT    1.19   1.10    5  243    9  41.9  52.5 1024.5 -9.9 -9.999 -99.9 -99.99 -9.99
2018/10/22 07:06 EDT    1.10   1.00    5  235    6  41.4  52.5 1024.6 -9.9 -9.999 -99.9 -99.99 -9.99
2018/10/22 07:12 EDT    1.01   0.90    5  227    6  41.0  52.5 1024.6 -9.9 -9.999 -99.9 -99.99 -9.99
2018/10/22 07:18 EDT    0.93   0.80    5  234    6  40.8  52.5 1024.6 -9.9 -9.999 -99.9 -99.99 -9.99
2018/10/22 07:24 EDT    0.85   0.71    5  243    6  41.4  52.5 1024.7 -9.9 -9.999 -99.9 -99.99 -9.99
2018/10/22 07:30 EDT    0.78   0.61    5  240    7  41.5  52.5 1024.8 -9.9 -9.999 -99.9 -99.99 -9.99
2018/10/22 07:36 EDT    0.72   0.52    4  229    6  41.0  52.5 1024.8 -9.9 -9.999 -99.9 -99.99 -9.99
2018/10/22 07:42 EDT    0.67   0.43    4  220    5  40.3  52.5 1024.8 -9.9 -9.999 -99.9 -99.99 -9.99
2018/10/22 07:48 EDT    0.62   0.34    4  215    6  40.5  52.5 1024.9 -9.9 -9.999 -99.9 -99.99 -9.99
2018/10/22 07:54 EDT    0.59   0.26    3  232    5  41.2  52.5 1025.1 -9.9 -9.999 -99.9 -99.99 -9.99
2018/10/22 08:00 EDT    0.57   0.18    3  238    5  41.4  52.5 1025.1 -9.9 -9.999 -99.9 -99.99 -9.99
2018/10/22 08:06 EDT    0.55   0.11    5  247    6  41.4  52.5 1025.2 -9.9 -9.999 -99.9 -99.99 -9.99
2018/10/22 08:12 EDT    0.56   0.04    6  246    7  41.9  52.5 1025.4 -9.9 -9.999 -99.9 -99.99 -9.99
2018/10/22 08:18 EDT    0.57  -0.02    6  242    7  42.1  52.3 1025.4 -9.9 -9.999 -99.9 -99.99 -9.99
2018/10/22 08:24 EDT    0.60  -0.06    5  238    7  42.4  52.3 1025.3 -9.9 -9.999 -99.9 -99.99 -9.99
2018/10/22 08:30 EDT    0.64  -0.09    5  245    7  43.2  52.3 1025.4 -9.9 -9.999 -99.9 -99.99 -9.99
2018/10/22 08:36 EDT    0.70  -0.09    8  261   10  43.2  52.3 1025.4 -9.9 -9.999 -99.9 -99.99 -9.99
2018/10/22 08:42 EDT    0.77  -0.05    9  258   10  43.5  52.3 1025.5 -9.9 -9.999 -99.9 -99.99 -9.99
2018/10/22 08:48 EDT    0.86   0.05    9  257   10  43.5  52.3 1025.5 -9.9 -9.999 -99.9 -99.99 -9.99
2018/10/22 08:54 EDT    0.96   0.21    8  256   10  43.7  52.3 1025.5 -9.9 -9.999 -99.9 -99.99 -9.99
2018/10/22 09:00 EDT    1.08   0.45    8  250   10  43.9  52.3 1025.5 -9.9 -9.999 -99.9 -99.99 -9.99
2018/10/22 09:06 EDT    1.20   0.73    8  250   10  44.1  52.3 1025.6 -9.9 -9.999 -99.9 -99.99 -9.99
2018/10/22 09:12 EDT    1.34   1.00    9  251   10  44.4  52.2 1025.5 -9.9 -9.999 -99.9 -99.99 -9.99
2018/10/22 09:18 EDT    1.49   1.26    7  249   10  44.6  52.2 1025.4 -9.9 -9.999 -99.9 -99.99 -9.99
2018/10/22 09:24 EDT    1.65   1.50    7  258    9  44.8  52.2 1025.4 -9.9 -9.999 -99.9 -99.99 -9.99
2018/10/22 09:30 EDT    1.82   1.71    8  252   10  44.8  52.2 1025.4 -9.9 -9.999 -99.9 -99.99 -9.99
2018/10/22 09:36 EDT    2.00   1.92    7  257   10  45.0  52.2 1025.5 -9.9 -9.999 -99.9 -99.99 -9.99
2018/10/22 09:42 EDT    2.18   2.11    8  252    9  45.3  52.2 1025.5 -9.9 -9.999 -99.9 -99.99 -9.99
2018/10/22 09:48 EDT    2.37   2.30    9  265   11  45.5  52.2 1025.5 -9.9 -9.999 -99.9 -99.99 -9.99
2018/10/22 09:54 EDT    2.56   2.48    8  264    9  45.5  52.3 1025.5 -9.9 -9.999 -99.9 -99.99 -9.99
2018/10/22 10:00 EDT    2.76   2.65    8  264   10  45.7  52.3 1025.5 -9.9 -9.999 -99.9 -99.99 -9.99
2018/10/22 10:06 EDT    2.95   2.83    9  266   11  45.9  52.3 1025.5 -9.9 -9.999 -99.9 -99.99 -9.99
2018/10/22 10:12 EDT    3.15   3.00   10  253   11  45.9  52.3 1025.5 -9.9 -9.999 -99.9 -99.99 -9.99
2018/10/22 10:18 EDT    3.35   3.18    9  253   12  45.9  52.3 1025.4 -9.9 -9.999 -99.9 -99.99 -9.99
2018/10/22 10:24 EDT    3.55   3.37    9  248   11  46.2  52.3 1025.5 -9.9 -9.999 -99.9 -99.99 -9.99
2018/10/22 10:30 EDT    3.75   3.57   10  273   13  46.2  52.3 1025.4 -9.9 -9.999 -99.9 -99.99 -9.99
2018/10/22 10:36 EDT    3.94   3.78    7  258   11  46.2  52.3 1025.4 -9.9 -9.999 -99.9 -99.99 -9.99
2018/10/22 10:42 EDT    4.14   4.00    9  268   12  46.4  52.5 1025.4 -9.9 -9.999 -99.9 -99.99 -9.99
2018/10/22 10:48 EDT    4.33   4.25    8  255   11  46.8  52.5 1025.3 -9.9 -9.999 -99.9 -99.99 -9.99
2018/10/22 10:54 EDT    4.52   4.52    9  246   11  46.8  52.5 1025.4 -9.9 -9.999 -99.9 -99.99 -9.99
2018/10/22 11:00 EDT    4.70   4.79    8  244   12  46.6  52.5 1025.3 -9.9 -9.999 -99.9 -99.99 -9.99
2018/10/22 11:06 EDT    4.89   5.07    6  227   10  46.6  52.5 1025.2 -9.9 -9.999 -99.9 -99.99 -9.99
2018/10/22 11:12 EDT    5.06   5.32    6  246    9  46.9  52.5 1025.2 -9.9 -9.999 -99.9 -99.99 -9.99
2018/10/22 11:18 EDT    5.24   5.55    7  259    9  46.9  52.5 1025.2 -9.9 -9.999 -99.9 -99.99 -9.99
2018/10/22 11:24 EDT    5.41   5.75    7  250    9  47.1  52.5 1025.2 -9.9 -9.999 -99.9 -99.99 -9.99
2018/10/22 11:30 EDT    5.58   5.94    6  242    9  47.1  52.5 1025.1 -9.9 -9.999 -99.9 -99.99 -9.99
2018/10/22 11:36 EDT    5.75   6.10    5  256    9  47.3  52.5 1025.1 -9.9 -9.999 -99.9 -99.99 -9.99
2018/10/22 11:42 EDT    5.91   6.27    5  220    7  47.3  52.5 1025.2 -9.9 -9.999 -99.9 -99.99 -9.99
2018/10/22 11:48 EDT    6.07   6.42    5  221    9  47.5  52.5 1025.0 -9.9 -9.999 -99.9 -99.99 -9.99
2018/10/22 11:54 EDT    6.22   6.59    4  278    7  48.0  52.5 1024.9 -9.9 -9.999 -99.9 -99.99 -9.99
2018/10/22 12:00 EDT    6.37   6.75    5  236   11  48.4  52.5 1024.8 -9.9 -9.999 -99.9 -99.99 -9.99
2018/10/22 12:06 EDT    6.51   6.89    6  220   11  48.2  52.5 1024.7 -9.9 -9.999 -99.9 -99.99 -9.99
2018/10/22 12:12 EDT    6.65   7.04    8  258    9  48.6  52.5 1024.6 -9.9 -9.999 -99.9 -99.99 -9.99
2018/10/22 12:18 EDT    6.78   7.17    7  225   14  48.2  52.5 1024.6 -9.9 -9.999 -99.9 -99.99 -9.99
2018/10/22 12:24 EDT    6.90   7.28    8  237   12  48.7  52.5 1024.5 -9.9 -9.999 -99.9 -99.99 -9.99
2018/10/22 12:30 EDT    7.02   7.40    7  246   12  48.4  52.5 1024.3 -9.9 -9.999 -99.9 -99.99 -9.99
2018/10/22 12:36 EDT    7.13   7.51    9  263   13  48.7  52.5 1024.2 -9.9 -9.999 -99.9 -99.99 -9.99
2018/10/22 12:42 EDT    7.23   7.62   10  260   11  48.6  52.5 1024.1 -9.9 -9.999 -99.9 -99.99 -9.99
2018/10/22 12:48 EDT    7.32   7.72    9  254   13  48.9  52.5 1024.0 -9.9 -9.999 -99.9 -99.99 -9.99
2018/10/22 12:54 EDT    7.40   7.80   10  264   11  49.1  52.5 1023.9 -9.9 -9.999 -99.9 -99.99 -9.99
2018/10/22 13:00 EDT    7.47   7.90    9  253   10  49.3  52.5 1023.8 -9.9 -9.999 -99.9 -99.99 -9.99
2018/10/22 13:06 EDT    7.53   7.94    6  265   10  49.3  52.5 1023.7 -9.9 -9.999 -99.9 -99.99 -9.99
2018/10/22 13:12 EDT    7.58   8.03    6  225   13  49.8  52.5 1023.6 -9.9 -9.999 -99.9 -99.99 -9.99
2018/10/22 13:18 EDT    7.61   8.09    9  269   13  49.3  52.7 1023.6 -9.9 -9.999 -99.9 -99.99 -9.99
2018/10/22 13:24 EDT    7.64   7.92   11  265   15  49.6  52.5 1023.4 -9.9 -9.999 -99.9 -99.99 -9.99
2018/10/22 13:30 EDT    7.66   8.17   12  263   13  50.0  52.7 1023.2 -9.9 -9.999 -99.9 -99.99 -9.99
2018/10/22 13:36 EDT    7.66   8.19    9  254   11  50.0  52.7 1023.1 -9.9 -9.999 -99.9 -99.99 -9.99
2018/10/22 13:42 EDT    7.65   8.20    7  252   11  50.5  52.7 1023.1 -9.9 -9.999 -99.9 -99.99 -9.99
2018/10/22 13:48 EDT    7.63   8.20    9  231   13  50.5  52.7 1023.0 -9.9 -9.999 -99.9 -99.99 -9.99
2018/10/22 13:54 EDT    7.60   8.19    5  215   10  50.4  52.7 1022.8 -9.9 -9.999 -99.9 -99.99 -9.99
2018/10/22 14:00 EDT    7.56   8.16    7  241   10  50.9  52.7 1022.8 -9.9 -9.999 -99.9 -99.99 -9.99
2018/10/22 14:06 EDT    7.51   8.09   12  258   15  51.4  52.7 1022.7 -9.9 -9.999 -99.9 -99.99 -9.99
2018/10/22 14:12 EDT    7.45   8.05   10  251   13  51.3  52.7 1022.7 -9.9 -9.999 -99.9 -99.99 -9.99
2018/10/22 14:18 EDT    7.38   7.97   10  236   15  50.9  52.7 1022.6 -9.9 -9.999 -99.9 -99.99 -9.99
2018/10/22 14:24 EDT    7.31   7.89    8  248   13  51.1  52.7 1022.4 -9.9 -9.999 -99.9 -99.99 -9.99
2018/10/22 14:30 EDT    7.22   7.79    7  224   11  51.4  52.7 1022.3 -9.9 -9.999 -99.9 -99.99 -9.99
2018/10/22 14:36 EDT    7.13   7.68    8  253   13  51.6  52.7 1022.2 -9.9 -9.999 -99.9 -99.99 -9.99
2018/10/22 14:42 EDT    7.04   7.56    8  235   12  52.2  52.7 1022.2 -9.9 -9.999 -99.9 -99.99 -9.99
2018/10/22 14:48 EDT    6.94   7.45    9  236   16  51.8  52.7 1022.1 -9.9 -9.999 -99.9 -99.99 -9.99
2018/10/22 14:54 EDT    6.83   7.33    9  241   14  52.3  52.7 1022.1 -9.9 -9.999 -99.9 -99.99 -9.99
2018/10/22 15:00 EDT    6.72   7.20    9  223   14  51.8  52.7 1021.9 -9.9 -9.999 -99.9 -99.99 -9.99
2018/10/22 15:06 EDT    6.60   7.08   10  245   14  51.8  52.7 1021.9 -9.9 -9.999 -99.9 -99.99 -9.99
2018/10/22 15:12 EDT    6.48   6.95   10  252   14  52.3  52.7 1021.8 -9.9 -9.999 -99.9 -99.99 -9.99
2018/10/22 15:18 EDT    6.36   6.82    9  217   15  52.9  52.7 1021.7 -9.9 -9.999 -99.9 -99.99 -9.99
2018/10/22 15:24 EDT    6.24   6.70    8  231   12  52.7  52.7 1021.7 -9.9 -9.999 -99.9 -99.99 -9.99
2018/10/22 15:30 EDT    6.11   6.56    9  237   14  52.9  52.7 1021.6 -9.9 -9.999 -99.9 -99.99 -9.99
2018/10/22 15:36 EDT    5.98   6.42    8  229   14  52.7  52.7 1021.6 -9.9 -9.999 -99.9 -99.99 -9.99
2018/10/22 15:42 EDT    5.85   6.29   10  240   14  53.4  52.7 1021.5 -9.9 -9.999 -99.9 -99.99 -9.99
2018/10/22 15:48 EDT    5.71   6.15    6  230   11  53.2  52.7 1021.5 -9.9 -9.999 -99.9 -99.99 -9.99
2018/10/22 15:54 EDT    5.58   6.02   11  259   13  52.9  52.7 1021.4 -9.9 -9.999 -99.9 -99.99 -9.99
2018/10/22 16:00 EDT    5.44   5.88    8  245   12  53.1  52.7 1021.5 -9.9 -9.999 -99.9 -99.99 -9.99
2018/10/22 16:06 EDT    5.30 -99.99   11  245   15 -99.9 -99.9 -999.9 -9.9 -9.999 -99.9 -99.99 -9.99
2018/10/22 16:12 EDT    5.15 -99.99 -999 -999 -999 -99.9 -99.9 -999.9 -9.9 -9.999 -99.9 -99.99 -9.99
2018/10/22 16:18 EDT    5.01 -99.99 -999 -999 -999 -99.9 -99.9 -999.9 -9.9 -9.999 -99.9 -99.99 -9.99
2018/10/22 16:24 EDT    4.87 -99.99 -999 -999 -999 -99.9 -99.9 -999.9 -9.9 -9.999 -99.9 -99.99 -9.99
2018/10/22 16:30 EDT    4.72 -99.99 -999 -999 -999 -99.9 -99.9 -999.9 -9.9 -9.999 -99.9 -99.99 -9.99
2018/10/22 16:36 EDT    4.58 -99.99 -999 -999 -999 -99.9 -99.9 -999.9 -9.9 -9.999 -99.9 -99.99 -9.99
2018/10/22 16:42 EDT    4.43 -99.99 -999 -999 -999 -99.9 -99.9 -999.9 -9.9 -9.999 -99.9 -99.99 -9.99
2018/10/22 16:48 EDT    4.28 -99.99 -999 -999 -999 -99.9 -99.9 -999.9 -9.9 -9.999 -99.9 -99.99 -9.99
2018/10/22 16:54 EDT    4.14 -99.99 -999 -999 -999 -99.9 -99.9 -999.9 -9.9 -9.999 -99.9 -99.99 -9.99
2018/10/22 17:00 EDT    3.99 -99.99 -999 -999 -999 -99.9 -99.9 -999.9 -9.9 -9.999 -99.9 -99.99 -9.99
2018/10/22 17:06 EDT    3.85 -99.99 -999 -999 -999 -99.9 -99.9 -999.9 -9.9 -9.999 -99.9 -99.99 -9.99
2018/10/22 17:12 EDT    3.71 -99.99 -999 -999 -999 -99.9 -99.9 -999.9 -9.9 -9.999 -99.9 -99.99 -9.99
2018/10/22 17:18 EDT    3.57 -99.99 -999 -999 -999 -99.9 -99.9 -999.9 -9.9 -9.999 -99.9 -99.99 -9.99
2018/10/22 17:24 EDT    3.43 -99.99 -999 -999 -999 -99.9 -99.9 -999.9 -9.9 -9.999 -99.9 -99.99 -9.99
2018/10/22 17:30 EDT    3.30 -99.99 -999 -999 -999 -99.9 -99.9 -999.9 -9.9 -9.999 -99.9 -99.99 -9.99
2018/10/22 17:36 EDT    3.16 -99.99 -999 -999 -999 -99.9 -99.9 -999.9 -9.9 -9.999 -99.9 -99.99 -9.99
2018/10/22 17:42 EDT    3.03 -99.99 -999 -999 -999 -99.9 -99.9 -999.9 -9.9 -9.999 -99.9 -99.99 -9.99
2018/10/22 17:48 EDT    2.90 -99.99 -999 -999 -999 -99.9 -99.9 -999.9 -9.9 -9.999 -99.9 -99.99 -9.99
2018/10/22 17:54 EDT    2.78 -99.99 -999 -999 -999 -99.9 -99.9 -999.9 -9.9 -9.999 -99.9 -99.99 -9.99
2018/10/22 18:00 EDT    2.66 -99.99 -999 -999 -999 -99.9 -99.9 -999.9 -9.9 -9.999 -99.9 -99.99 -9.99
2018/10/22 18:06 EDT    2.54 -99.99 -999 -999 -999 -99.9 -99.9 -999.9 -9.9 -9.999 -99.9 -99.99 -9.99
2018/10/22 18:12 EDT    2.42 -99.99 -999 -999 -999 -99.9 -99.9 -999.9 -9.9 -9.999 -99.9 -99.99 -9.99
2018/10/22 18:18 EDT    2.31 -99.99 -999 -999 -999 -99.9 -99.9 -999.9 -9.9 -9.999 -99.9 -99.99 -9.99
2018/10/22 18:24 EDT    2.19 -99.99 -999 -999 -999 -99.9 -99.9 -999.9 -9.9 -9.999 -99.9 -99.99 -9.99
2018/10/22 18:30 EDT    2.08 -99.99 -999 -999 -999 -99.9 -99.9 -999.9 -9.9 -9.999 -99.9 -99.99 -9.99
2018/10/22 18:36 EDT    1.97 -99.99 -999 -999 -999 -99.9 -99.9 -999.9 -9.9 -9.999 -99.9 -99.99 -9.99
2018/10/22 18:42 EDT    1.87 -99.99 -999 -999 -999 -99.9 -99.9 -999.9 -9.9 -9.999 -99.9 -99.99 -9.99
2018/10/22 18:48 EDT    1.76 -99.99 -999 -999 -999 -99.9 -99.9 -999.9 -9.9 -9.999 -99.9 -99.99 -9.99
2018/10/22 18:54 EDT    1.66 -99.99 -999 -999 -999 -99.9 -99.9 -999.9 -9.9 -9.999 -99.9 -99.99 -9.99
2018/10/22 19:00 EDT    1.56 -99.99 -999 -999 -999 -99.9 -99.9 -999.9 -9.9 -9.999 -99.9 -99.99 -9.99
2018/10/22 19:06 EDT    1.45 -99.99 -999 -999 -999 -99.9 -99.9 -999.9 -9.9 -9.999 -99.9 -99.99 -9.99
2018/10/22 19:12 EDT    1.36 -99.99 -999 -999 -999 -99.9 -99.9 -999.9 -9.9 -9.999 -99.9 -99.99 -9.99
2018/10/22 19:18 EDT    1.26 -99.99 -999 -999 -999 -99.9 -99.9 -999.9 -9.9 -9.999 -99.9 -99.99 -9.99
2018/10/22 19:24 EDT    1.17 -99.99 -999 -999 -999 -99.9 -99.9 -999.9 -9.9 -9.999 -99.9 -99.99 -9.99
2018/10/22 19:30 EDT    1.07 -99.99 -999 -999 -999 -99.9 -99.9 -999.9 -9.9 -9.999 -99.9 -99.99 -9.99
2018/10/22 19:36 EDT    0.99 -99.99 -999 -999 -999 -99.9 -99.9 -999.9 -9.9 -9.999 -99.9 -99.99 -9.99
2018/10/22 19:42 EDT    0.91 -99.99 -999 -999 -999 -99.9 -99.9 -999.9 -9.9 -9.999 -99.9 -99.99 -9.99
2018/10/22 19:48 EDT    0.83 -99.99 -999 -999 -999 -99.9 -99.9 -999.9 -9.9 -9.999 -99.9 -99.99 -9.99
2018/10/22 19:54 EDT    0.76 -99.99 -999 -999 -999 -99.9 -99.9 -999.9 -9.9 -9.999 -99.9 -99.99 -9.99
2018/10/22 20:00 EDT    0.70 -99.99 -999 -999 -999 -99.9 -99.9 -999.9 -9.9 -9.999 -99.9 -99.99 -9.99
2018/10/22 20:06 EDT    0.65 -99.99 -999 -999 -999 -99.9 -99.9 -999.9 -9.9 -9.999 -99.9 -99.99 -9.99
2018/10/22 20:12 EDT    0.61 -99.99 -999 -999 -999 -99.9 -99.9 -999.9 -9.9 -9.999 -99.9 -99.99 -9.99
2018/10/22 20:18 EDT    0.57 -99.99 -999 -999 -999 -99.9 -99.9 -999.9 -9.9 -9.999 -99.9 -99.99 -9.99
2018/10/22 20:24 EDT    0.56 -99.99 -999 -999 -999 -99.9 -99.9 -999.9 -9.9 -9.999 -99.9 -99.99 -9.99
2018/10/22 20:30 EDT    0.55 -99.99 -999 -999 -999 -99.9 -99.9 -999.9 -9.9 -9.999 -99.9 -99.99 -9.99
2018/10/22 20:36 EDT    0.55 -99.99 -999 -999 -999 -99.9 -99.9 -999.9 -9.9 -9.999 -99.9 -99.99 -9.99
2018/10/22 20:42 EDT    0.57 -99.99 -999 -999 -999 -99.9 -99.9 -999.9 -9.9 -9.999 -99.9 -99.99 -9.99
2018/10/22 20:48 EDT    0.61 -99.99 -999 -999 -999 -99.9 -99.9 -999.9 -9.9 -9.999 -99.9 -99.99 -9.99
2018/10/22 20:54 EDT    0.66 -99.99 -999 -999 -999 -99.9 -99.9 -999.9 -9.9 -9.999 -99.9 -99.99 -9.99
2018/10/22 21:00 EDT    0.73 -99.99 -999 -999 -999 -99.9 -99.9 -999.9 -9.9 -9.999 -99.9 -99.99 -9.99
2018/10/22 21:06 EDT    0.81 -99.99 -999 -999 -999 -99.9 -99.9 -999.9 -9.9 -9.999 -99.9 -99.99 -9.99
2018/10/22 21:12 EDT    0.90 -99.99 -999 -999 -999 -99.9 -99.9 -999.9 -9.9 -9.999 -99.9 -99.99 -9.99
2018/10/22 21:18 EDT    1.01 -99.99 -999 -999 -999 -99.9 -99.9 -999.9 -9.9 -9.999 -99.9 -99.99 -9.99
2018/10/22 21:24 EDT    1.14 -99.99 -999 -999 -999 -99.9 -99.9 -999.9 -9.9 -9.999 -99.9 -99.99 -9.99
2018/10/22 21:30 EDT    1.28 -99.99 -999 -999 -999 -99.9 -99.9 -999.9 -9.9 -9.999 -99.9 -99.99 -9.99
2018/10/22 21:36 EDT    1.43 -99.99 -999 -999 -999 -99.9 -99.9 -999.9 -9.9 -9.999 -99.9 -99.99 -9.99
2018/10/22 21:42 EDT    1.59 -99.99 -999 -999 -999 -99.9 -99.9 -999.9 -9.9 -9.999 -99.9 -99.99 -9.99
2018/10/22 21:48 EDT    1.76 -99.99 -999 -999 -999 -99.9 -99.9 -999.9 -9.9 -9.999 -99.9 -99.99 -9.99
2018/10/22 21:54 EDT    1.95 -99.99 -999 -999 -999 -99.9 -99.9 -999.9 -9.9 -9.999 -99.9 -99.99 -9.99
2018/10/22 22:00 EDT    2.14 -99.99 -999 -999 -999 -99.9 -99.9 -999.9 -9.9 -9.999 -99.9 -99.99 -9.99
2018/10/22 22:06 EDT    2.34 -99.99 -999 -999 -999 -99.9 -99.9 -999.9 -9.9 -9.999 -99.9 -99.99 -9.99
2018/10/22 22:12 EDT    2.54 -99.99 -999 -999 -999 -99.9 -99.9 -999.9 -9.9 -9.999 -99.9 -99.99 -9.99

Revised: 08/08/2018
NOAA / National Ocean Service
Web site owner: Center for Operational Oceanographic Products and Services